Time;durP1;ratioP1;P1;durP2;ratioP2;P2;SDS_P1;SDS_P2;PMS_P1;PMS_P2;Temp;Humidity;BMP_temperature;BMP_pressure;BME280_temperature;BME280_humidity;BME280_pressure;Samples;Min_cycle;Max_cycle;Signal;HPM_P1;HPM_P2
2021/09/25 00:00:31;;;;;;;3.88;3.58;;;13.90;99.90;;;;;;5027362;28;20030;-82
2021/09/25 00:03:00;;;;;;;3.10;2.80;;;13.80;99.90;;;;;;4993542;28;20038;-83
2021/09/25 00:05:34;;;;;;;2.40;2.20;;;13.80;99.90;;;;;;4992127;28;20113;-82
2021/09/25 00:08:02;;;;;;;5.85;4.60;;;13.70;99.90;;;;;;4990943;28;20125;-82
2021/09/25 00:10:31;;;;;;;2.50;2.30;;;13.80;99.90;;;;;;4992863;28;20429;-81
2021/09/25 00:12:58;;;;;;;4.25;3.85;;;13.90;99.90;;;;;;4994613;28;20038;-84
2021/09/25 00:15:29;;;;;;;4.45;4.05;;;13.80;99.90;;;;;;4994059;28;20038;-81
2021/09/25 00:17:58;;;;;;;2.53;2.33;;;13.90;99.90;;;;;;4991467;28;20125;-81
2021/09/25 00:20:26;;;;;;;2.83;2.63;;;13.70;99.90;;;;;;4994642;28;20034;-84
2021/09/25 00:22:54;;;;;;;2.85;2.60;;;13.70;99.90;;;;;;4993011;28;20141;-85
2021/09/25 00:25:21;;;;;;;2.55;2.35;;;13.70;99.90;;;;;;4976514;28;20137;-82
2021/09/25 00:27:48;;;;;;;3.47;3.17;;;13.70;99.90;;;;;;4976654;28;20436;-82
2021/09/25 00:30:17;;;;;;;2.42;2.22;;;13.80;99.90;;;;;;4991429;28;20046;-84
2021/09/25 00:32:45;;;;;;;2.67;2.47;;;13.50;99.90;;;;;;4994417;28;20113;-84
2021/09/25 00:35:13;;;;;;;2.60;2.40;;;13.60;99.90;;;;;;4993483;28;20453;-86
2021/09/25 00:37:40;;;;;;;2.50;2.30;;;13.70;99.90;;;;;;4973468;28;20097;-83
2021/09/25 00:40:11;;;;;;;2.65;2.45;;;13.70;99.90;;;;;;4971976;28;20043;-83
2021/09/25 00:42:38;;;;;;;2.50;2.30;;;13.70;99.90;;;;;;4972993;28;20062;-85
2021/09/25 00:45:08;;;;;;;2.85;2.65;;;13.70;99.90;;;;;;4957731;28;20066;-86
2021/09/25 00:47:36;;;;;;;3.50;3.20;;;13.70;99.90;;;;;;4974332;28;20141;-83
2021/09/25 00:50:06;;;;;;;5.90;5.35;;;13.70;99.90;;;;;;4973674;28;20070;-85
2021/09/25 00:52:33;;;;;;;3.53;3.22;;;13.70;99.90;;;;;;4988996;28;20084;-84
2021/09/25 00:55:02;;;;;;;3.35;3.05;;;13.50;99.90;;;;;;4993862;28;20122;-84
2021/09/25 00:57:30;;;;;;;2.65;2.45;;;12.70;99.90;;;;;;4994083;28;20389;-85
2021/09/25 00:59:57;;;;;;;2.50;2.30;;;12.80;99.90;;;;;;4994026;28;20038;-84
2021/09/25 01:02:25;;;;;;;2.65;2.45;;;12.40;99.90;;;;;;4993839;28;20406;-82
2021/09/25 01:04:53;;;;;;;2.80;2.60;;;12.30;99.90;;;;;;4974264;28;20112;-84
2021/09/25 01:07:21;;;;;;;3.67;3.38;;;12.40;99.90;;;;;;4990060;28;20061;-84
2021/09/25 01:09:53;;;;;;;3.05;2.85;;;12.40;99.90;;;;;;4991983;28;20054;-84
2021/09/25 01:12:21;;;;;;;2.45;2.25;;;12.40;99.90;;;;;;4992344;28;20117;-84
2021/09/25 01:14:48;;;;;;;4.25;3.85;;;12.70;99.90;;;;;;4991940;28;20066;-82
2021/09/25 01:17:15;;;;;;;3.38;2.85;;;12.90;99.90;;;;;;4989277;28;20125;-84
2021/09/25 01:19:44;;;;;;;3.00;2.80;;;13.00;99.90;;;;;;4992421;28;20130;-84
2021/09/25 01:22:12;;;;;;;2.80;2.60;;;13.10;99.90;;;;;;4991696;28;20066;-86
2021/09/25 01:24:39;;;;;;;4.22;3.92;;;13.30;99.90;;;;;;4993001;28;20097;-85
2021/09/25 01:27:07;;;;;;;3.00;2.80;;;13.40;99.90;;;;;;4991174;28;20427;-84
2021/09/25 01:29:35;;;;;;;2.70;2.50;;;13.30;99.90;;;;;;4991828;28;20053;-84
2021/09/25 01:32:04;;;;;;;2.92;2.72;;;13.10;99.90;;;;;;4993216;28;20497;-85
2021/09/25 01:34:31;;;;;;;2.60;2.40;;;12.70;99.90;;;;;;4993464;28;20058;-84
2021/09/25 01:36:59;;;;;;;2.50;2.30;;;12.80;99.90;;;;;;4973050;28;20393;-83
2021/09/25 01:39:27;;;;;;;3.58;3.28;;;12.70;99.90;;;;;;4991574;28;20042;-83
2021/09/25 01:41:55;;;;;;;2.60;2.40;;;12.50;99.90;;;;;;4992275;28;20042;-84
2021/09/25 01:44:22;;;;;;;2.63;2.42;;;12.50;99.90;;;;;;5024005;28;20121;-83
2021/09/25 01:46:50;;;;;;;3.05;2.85;;;12.60;99.90;;;;;;4992095;28;20437;-83
2021/09/25 01:49:24;;;;;;;2.85;2.65;;;12.60;99.90;;;;;;4992996;28;20039;-83
2021/09/25 01:51:52;;;;;;;2.60;2.40;;;12.50;99.90;;;;;;5005082;28;20486;-85
2021/09/25 01:54:19;;;;;;;4.55;4.20;;;12.10;99.90;;;;;;4992325;28;20064;-80
2021/09/25 01:56:47;;;;;;;2.88;2.67;;;12.10;99.90;;;;;;4992582;28;20758;-83
2021/09/25 01:59:14;;;;;;;2.63;2.42;;;12.00;99.90;;;;;;4975629;28;20450;-80
2021/09/25 02:01:42;;;;;;;2.90;2.70;;;12.10;99.90;;;;;;4991091;28;20046;-83
2021/09/25 02:04:09;;;;;;;2.88;2.67;;;12.20;99.90;;;;;;4990537;28;20122;-80
2021/09/25 02:06:37;;;;;;;2.80;2.60;;;12.00;99.90;;;;;;4980335;28;20070;-84
2021/09/25 02:09:04;;;;;;;2.80;2.60;;;12.10;99.90;;;;;;4971682;28;20482;-84
2021/09/25 02:11:32;;;;;;;4.72;3.58;;;12.10;99.90;;;;;;4988595;28;20042;-84
2021/09/25 02:14:00;;;;;;;2.88;2.67;;;11.90;99.90;;;;;;4992484;28;20117;-85
2021/09/25 02:16:27;;;;;;;2.72;2.53;;;11.90;99.90;;;;;;4988631;28;20052;-81
2021/09/25 02:18:55;;;;;;;2.60;2.40;;;12.10;99.90;;;;;;4990944;28;20140;-84
2021/09/25 02:21:22;;;;;;;2.80;2.60;;;12.20;99.90;;;;;;4992218;28;20053;-83
2021/09/25 02:23:51;;;;;;;3.78;3.35;;;12.30;99.90;;;;;;4992307;28;20049;-84
2021/09/25 02:26:18;;;;;;;2.80;2.60;;;12.30;99.90;;;;;;4991639;28;20651;-81
2021/09/25 02:28:45;;;;;;;2.78;2.58;;;12.20;99.90;;;;;;4988688;28;20085;-83
2021/09/25 02:31:13;;;;;;;2.95;2.75;;;12.20;99.90;;;;;;4990714;28;20046;-82
2021/09/25 02:33:41;;;;;;;2.90;2.70;;;12.30;99.90;;;;;;4991962;28;20042;-85
2021/09/25 02:36:08;;;;;;;2.60;2.40;;;12.20;99.90;;;;;;4992595;28;20451;-87
2021/09/25 02:38:35;;;;;;;3.15;2.95;;;12.20;99.90;;;;;;4990703;28;20073;-82
2021/09/25 02:41:04;;;;;;;3.53;3.22;;;12.20;99.90;;;;;;4991798;28;20046;-86
2021/09/25 02:43:32;;;;;;;2.88;2.67;;;12.10;99.90;;;;;;4992636;28;20043;-82
2021/09/25 02:45:59;;;;;;;2.90;2.70;;;12.00;99.90;;;;;;4993097;28;20510;-87
2021/09/25 02:48:27;;;;;;;2.70;2.50;;;11.90;99.90;;;;;;4992252;28;20486;-86
2021/09/25 02:50:54;;;;;;;3.33;3.03;;;12.10;99.90;;;;;;4973289;28;20175;-82
2021/09/25 02:53:21;;;;;;;3.00;2.80;;;12.10;99.90;;;;;;4992009;28;20453;-89
2021/09/25 02:55:49;;;;;;;2.65;2.45;;;12.00;99.90;;;;;;4993501;28;20073;-85
2021/09/25 02:58:19;;;;;;;3.00;2.80;;;12.10;99.90;;;;;;4993267;28;20070;-88
2021/09/25 03:00:46;;;;;;;3.22;3.03;;;11.90;99.90;;;;;;4975836;28;20139;-83
2021/09/25 03:03:13;;;;;;;4.28;3.88;;;11.70;99.90;;;;;;4990228;28;20502;-86
2021/09/25 03:05:41;;;;;;;3.10;2.90;;;11.70;99.90;;;;;;4991598;28;20042;-85
2021/09/25 03:08:13;;;;;;;7.07;4.80;;;11.40;99.90;;;;;;4992713;28;20069;-86
2021/09/25 03:10:40;;;;;;;3.90;3.60;;;11.60;99.90;;;;;;5008482;28;20129;-85
2021/09/25 03:13:21;;;;;;;3.10;2.90;;;11.80;99.90;;;;;;5007404;28;20046;-85
2021/09/25 03:16:46;;;;;;;3.78;3.47;;;12.00;99.90;;;;;;5007256;28;20050;-84
2021/09/25 03:19:46;;;;;;;3.45;3.17;;;11.90;99.90;;;;;;4986773;28;20058;-86
2021/09/25 03:22:15;;;;;;;3.10;2.90;;;12.00;99.90;;;;;;4990689;28;20050;-83
2021/09/25 03:24:43;;;;;;;2.60;2.40;;;11.90;99.90;;;;;;5010425;28;20520;-86
2021/09/25 03:27:10;;;;;;;3.80;3.50;;;11.90;99.90;;;;;;4990855;28;20516;-83
2021/09/25 03:29:38;;;;;;;2.70;2.50;;;11.90;99.90;;;;;;4994923;28;20060;-83
2021/09/25 03:32:06;;;;;;;2.70;2.50;;;12.00;99.90;;;;;;4994955;28;20094;-88
2021/09/25 03:34:33;;;;;;;4.25;3.88;;;12.00;99.90;;;;;;4995430;28;20065;-83
2021/09/25 03:37:01;;;;;;;2.75;2.55;;;11.90;99.90;;;;;;4989250;28;20051;-85
2021/09/25 03:39:28;;;;;;;3.50;3.20;;;11.90;99.90;;;;;;4972765;28;20505;-83
2021/09/25 03:41:56;;;;;;;2.80;2.60;;;12.00;99.90;;;;;;4976246;28;20491;-87
2021/09/25 03:44:23;;;;;;;20.67;4.00;;;11.70;99.90;;;;;;4974106;28;20042;-85
2021/09/25 03:46:51;;;;;;;2.70;2.50;;;11.80;99.90;;;;;;4974483;28;20046;-86
2021/09/25 03:49:18;;;;;;;3.33;3.05;;;11.90;99.90;;;;;;4957622;28;20380;-83
2021/09/25 03:51:45;;;;;;;2.70;2.50;;;11.90;99.90;;;;;;4967363;28;20121;-84
2021/09/25 03:54:13;;;;;;;2.97;2.78;;;12.00;99.90;;;;;;4993131;28;20044;-83
2021/09/25 03:56:40;;;;;;;2.63;2.42;;;12.00;99.90;;;;;;5015953;28;20038;-83
2021/09/25 03:59:07;;;;;;;4.03;3.65;;;12.00;99.90;;;;;;4994542;28;20133;-83
2021/09/25 04:01:35;;;;;;;2.70;2.50;;;12.10;99.90;;;;;;4993978;28;20034;-86
2021/09/25 04:04:03;;;;;;;4.32;3.97;;;12.10;99.90;;;;;;4992398;28;20062;-87
2021/09/25 04:06:30;;;;;;;3.05;2.85;;;12.10;99.90;;;;;;4967594;28;20045;-85
2021/09/25 04:08:59;;;;;;;2.70;2.50;;;12.10;99.90;;;;;;4974925;28;20053;-84
2021/09/25 04:11:26;;;;;;;2.92;2.72;;;12.00;99.90;;;;;;4974130;28;20045;-85
2021/09/25 04:13:54;;;;;;;5.03;4.57;;;12.00;99.90;;;;;;4972078;28;20055;-83
2021/09/25 04:16:23;;;;;;;2.80;2.60;;;11.80;99.90;;;;;;4973355;28;20050;-82
2021/09/25 04:18:50;;;;;;;3.42;3.13;;;11.70;99.90;;;;;;4973231;28;20059;-84
2021/09/25 04:21:18;;;;;;;3.15;2.95;;;11.50;99.90;;;;;;4977712;28;20125;-86
2021/09/25 04:23:45;;;;;;;3.03;2.83;;;11.60;99.90;;;;;;4973644;28;20049;-87
2021/09/25 04:26:16;;;;;;;3.40;2.87;;;11.80;99.90;;;;;;4971591;28;20043;-83
2021/09/25 04:28:43;;;;;;;3.88;3.58;;;11.70;99.90;;;;;;4973025;28;20051;-84
2021/09/25 04:31:10;;;;;;;2.72;2.53;;;11.70;99.90;;;;;;4988451;28;20113;-86
2021/09/25 04:33:38;;;;;;;15.50;4.05;;;11.80;99.90;;;;;;4992762;28;20043;-86
2021/09/25 04:36:05;;;;;;;3.00;2.80;;;11.80;99.90;;;;;;4987932;28;20542;-86
2021/09/25 04:38:32;;;;;;;4.05;3.72;;;11.80;99.90;;;;;;4970365;28;20046;-85
2021/09/25 04:41:00;;;;;;;6.90;4.57;;;11.80;99.90;;;;;;4957206;28;20443;-86
2021/09/25 04:43:27;;;;;;;2.70;2.50;;;11.80;99.90;;;;;;4973396;28;20138;-85
2021/09/25 04:45:55;;;;;;;3.42;3.15;;;11.80;99.90;;;;;;4974327;28;20097;-86
2021/09/25 04:48:22;;;;;;;2.75;2.55;;;11.10;99.90;;;;;;4973503;28;20038;-84
2021/09/25 04:50:49;;;;;;;3.63;3.33;;;10.70;99.90;;;;;;4958437;28;20120;-83
2021/09/25 04:53:17;;;;;;;3.55;3.25;;;10.70;99.90;;;;;;4992499;28;20046;-84
2021/09/25 04:55:45;;;;;;;2.83;2.63;;;10.60;99.90;;;;;;4992710;28;20038;-83
2021/09/25 04:58:13;;;;;;;2.80;2.60;;;11.20;99.90;;;;;;4993066;28;20049;-84
2021/09/25 05:00:40;;;;;;;3.40;2.88;;;11.70;99.90;;;;;;4992658;28;20137;-83
2021/09/25 05:03:08;;;;;;;3.17;2.97;;;11.90;99.90;;;;;;4992625;28;20049;-87
2021/09/25 05:05:35;;;;;;;37.17;5.90;;;11.90;99.90;;;;;;4992113;28;20056;-84
2021/09/25 05:08:03;;;;;;;3.53;3.25;;;12.10;99.90;;;;;;4992083;28;20089;-83
2021/09/25 05:10:30;;;;;;;2.60;2.40;;;12.00;99.90;;;;;;4991796;28;20046;-81
2021/09/25 05:12:58;;;;;;;2.80;2.60;;;12.00;99.90;;;;;;4990599;28;20042;-80
2021/09/25 05:15:31;;;;;;;3.70;3.40;;;12.10;99.90;;;;;;4992258;28;20129;-83
2021/09/25 05:17:58;;;;;;;5.60;3.55;;;11.90;99.90;;;;;;4991103;28;20145;-86
2021/09/25 05:20:26;;;;;;;3.15;2.90;;;12.00;99.90;;;;;;4991769;28;20085;-90
2021/09/25 05:22:53;;;;;;;2.60;2.40;;;12.10;99.90;;;;;;4992883;28;20054;-84
2021/09/25 05:25:21;;;;;;;3.03;2.83;;;12.10;99.90;;;;;;4991125;28;20047;-86
2021/09/25 05:27:49;;;;;;;2.50;2.30;;;12.10;99.90;;;;;;4992539;28;20073;-81
2021/09/25 05:30:16;;;;;;;8.77;6.40;;;12.30;99.90;;;;;;4992464;28;20409;-79
2021/09/25 05:32:43;;;;;;;5.93;4.65;;;12.50;99.90;;;;;;4992683;28;20121;-83
2021/09/25 05:35:11;;;;;;;7.05;6.38;;;12.60;99.90;;;;;;4992701;28;20050;-82
2021/09/25 05:37:38;;;;;;;3.28;3.08;;;12.60;99.90;;;;;;4988871;28;20081;-82
2021/09/25 05:40:06;;;;;;;2.50;2.30;;;12.50;99.90;;;;;;4991280;28;20123;-81
2021/09/25 05:42:34;;;;;;;2.92;2.72;;;12.50;99.90;;;;;;5024263;28;20046;-82
2021/09/25 05:45:01;;;;;;;3.05;2.85;;;12.50;99.90;;;;;;4986147;28;20466;-82
2021/09/25 05:47:29;;;;;;;5.07;4.30;;;12.60;99.90;;;;;;4982057;28;20109;-82
2021/09/25 05:49:56;;;;;;;2.90;2.70;;;12.70;99.90;;;;;;4980823;28;20122;-80
2021/09/25 05:52:23;;;;;;;5.65;3.22;;;12.70;99.90;;;;;;4995343;28;20393;-79
2021/09/25 05:54:51;;;;;;;2.58;2.38;;;12.60;99.90;;;;;;4981484;28;20069;-80
2021/09/25 05:57:18;;;;;;;2.63;2.42;;;12.50;99.90;;;;;;4978896;28;20125;-79
2021/09/25 05:59:45;;;;;;;3.20;2.67;;;12.40;99.90;;;;;;4980259;28;20038;-80
2021/09/25 06:02:13;;;;;;;2.65;2.45;;;12.30;99.90;;;;;;5002431;28;20113;-81
2021/09/25 06:04:40;;;;;;;3.13;2.88;;;12.30;99.90;;;;;;4995459;28;20038;-79
2021/09/25 06:07:11;;;;;;;3.53;3.22;;;12.20;99.90;;;;;;4982790;28;20034;-79
2021/09/25 06:09:38;;;;;;;4.18;3.35;;;12.40;99.90;;;;;;4979769;28;20039;-80
2021/09/25 06:12:06;;;;;;;2.92;2.72;;;12.50;99.90;;;;;;4964103;28;20046;-80
2021/09/25 06:14:33;;;;;;;3.47;3.17;;;12.40;99.90;;;;;;4980348;28;20116;-81
2021/09/25 06:17:01;;;;;;;2.33;2.13;;;12.40;99.90;;;;;;5003367;28;20334;-80
2021/09/25 06:19:28;;;;;;;3.85;3.55;;;12.50;99.90;;;;;;4992206;28;20116;-81
2021/09/25 06:21:55;;;;;;;2.08;1.98;;;12.60;99.90;;;;;;4991403;28;20104;-80
2021/09/25 06:24:23;;;;;;;2.40;2.20;;;12.80;99.90;;;;;;4984060;28;20056;-83
2021/09/25 06:26:50;;;;;;;5.10;4.70;;;13.20;99.90;;;;;;4979282;28;20038;-79
2021/09/25 06:29:18;;;;;;;6.82;5.63;;;13.50;99.90;;;;;;4980851;28;20042;-81
2021/09/25 06:31:45;;;;;;;4.43;4.10;;;13.60;99.90;;;;;;4984333;28;20125;-80
2021/09/25 06:34:12;;;;;;;9.18;3.75;;;13.70;99.90;;;;;;4991336;28;20128;-80
2021/09/25 06:36:41;;;;;;;2.60;2.40;;;13.50;99.90;;;;;;4987786;28;20046;-78
2021/09/25 06:39:09;;;;;;;5.22;4.07;;;13.30;99.90;;;;;;4990086;28;20150;-78
2021/09/25 06:41:37;;;;;;;3.35;3.15;;;13.10;99.90;;;;;;4991667;28;20038;-78
2021/09/25 06:44:05;;;;;;;2.53;2.33;;;13.20;99.90;;;;;;4991395;28;20125;-79
2021/09/25 06:46:33;;;;;;;2.50;2.30;;;13.30;99.90;;;;;;4990932;28;20081;-80
2021/09/25 06:49:01;;;;;;;3.42;3.13;;;13.40;99.90;;;;;;4988057;28;20039;-79
2021/09/25 06:51:29;;;;;;;2.72;2.53;;;13.70;99.90;;;;;;4990482;28;20130;-80
2021/09/25 06:53:57;;;;;;;2.13;2.03;;;13.90;99.90;;;;;;4989903;28;20042;-79
2021/09/25 06:56:25;;;;;;;2.20;2.00;;;13.90;99.90;;;;;;4989992;28;20042;-78
2021/09/25 06:58:52;;;;;;;3.15;2.88;;;13.70;99.90;;;;;;4992807;28;20101;-79
2021/09/25 07:01:19;;;;;;;2.55;2.35;;;13.70;99.90;;;;;;4993687;28;20066;-80
2021/09/25 07:03:47;;;;;;;5.32;3.60;;;13.60;99.90;;;;;;4995665;28;20042;-81
2021/09/25 07:06:15;;;;;;;2.10;2.00;;;13.80;99.90;;;;;;4991477;28;20088;-79
2021/09/25 07:08:43;;;;;;;2.97;2.78;;;14.00;99.90;;;;;;4995416;28;20142;-79
2021/09/25 07:11:11;;;;;;;2.25;2.08;;;14.20;99.90;;;;;;4994111;28;20113;-81
2021/09/25 07:13:38;;;;;;;2.50;2.30;;;14.20;99.90;;;;;;4992574;28;20050;-81
2021/09/25 07:16:06;;;;;;;2.72;2.53;;;14.30;99.90;;;;;;4995046;28;20046;-83
2021/09/25 07:18:33;;;;;;;1.90;1.80;;;14.50;99.90;;;;;;4993759;28;20074;-81
2021/09/25 07:21:00;;;;;;;3.15;2.63;;;14.50;99.90;;;;;;5010364;28;20084;-81
2021/09/25 07:23:27;;;;;;;2.65;2.45;;;14.60;99.90;;;;;;5008469;28;20092;-81
2021/09/25 07:25:55;;;;;;;2.53;2.33;;;14.80;99.90;;;;;;4993261;28;20449;-81
2021/09/25 07:28:22;;;;;;;2.53;2.33;;;14.80;99.90;;;;;;4993502;28;20108;-79
2021/09/25 07:30:49;;;;;;;2.97;2.78;;;15.10;99.90;;;;;;4994983;28;20046;-83
2021/09/25 07:33:17;;;;;;;3.50;3.20;;;15.00;99.90;;;;;;4995309;28;20405;-80
2021/09/25 07:35:46;;;;;;;2.58;2.38;;;15.30;99.90;;;;;;4985567;28;20117;-79
2021/09/25 07:38:13;;;;;;;3.92;3.58;;;15.30;99.90;;;;;;4967807;28;20398;-78
2021/09/25 07:40:41;;;;;;;3.35;2.75;;;15.30;99.90;;;;;;4986082;28;20035;-79
2021/09/25 07:43:08;;;;;;;1.90;1.80;;;15.40;99.90;;;;;;4981993;28;20041;-79
2021/09/25 07:45:35;;;;;;;2.53;2.33;;;15.70;99.90;;;;;;4984913;28;20117;-79
2021/09/25 07:48:03;;;;;;;1.90;1.80;;;15.90;99.90;;;;;;4991309;28;20105;-81
2021/09/25 07:50:31;;;;;;;1.90;1.80;;;16.10;99.90;;;;;;5009488;28;20057;-82
2021/09/25 07:52:58;;;;;;;1.75;1.65;;;16.10;99.90;;;;;;5009784;28;20144;-78
2021/09/25 07:55:26;;;;;;;2.00;1.90;;;16.00;99.50;;;;;;4994478;28;20046;-80
2021/09/25 07:57:53;;;;;;;2.28;2.10;;;16.10;99.50;;;;;;4987810;28;20740;-79
2021/09/25 08:00:21;;;;;;;1.70;1.60;;;16.50;99.70;;;;;;4992684;28;20537;-81
2021/09/25 08:02:48;;;;;;;4.13;3.72;;;17.20;98.70;;;;;;4994254;28;20066;-80
2021/09/25 08:05:16;;;;;;;7.63;5.65;;;17.80;98.00;;;;;;4994239;28;20513;-80
2021/09/25 08:07:44;;;;;;;7.13;6.38;;;18.20;97.20;;;;;;4993800;28;20046;-80
2021/09/25 08:10:14;;;;;;;2.30;2.15;;;18.00;96.00;;;;;;4991596;28;20050;-81
2021/09/25 08:12:41;;;;;;;5.30;2.05;;;18.20;96.60;;;;;;4991905;28;20440;-81
2021/09/25 08:15:11;;;;;;;3.78;2.40;;;18.60;96.30;;;;;;4993625;28;20073;-85
2021/09/25 08:17:38;;;;;;;1.65;1.55;;;18.90;95.50;;;;;;4992927;28;20050;-82
2021/09/25 08:20:07;;;;;;;2.28;2.03;;;18.90;94.30;;;;;;4993333;28;20046;-85
2021/09/25 08:22:35;;;;;;;2.03;1.88;;;18.90;94.00;;;;;;4992574;28;20390;-82
2021/09/25 08:25:03;;;;;;;2.17;2.08;;;18.90;93.80;;;;;;4993942;28;20074;-80
2021/09/25 08:27:30;;;;;;;2.20;2.08;;;19.00;93.30;;;;;;4993672;28;20073;-83
2021/09/25 08:29:57;;;;;;;1.65;1.58;;;19.50;93.10;;;;;;4994299;28;20101;-81
2021/09/25 08:32:25;;;;;;;3.50;3.20;;;19.90;92.40;;;;;;5025118;28;20134;-79
2021/09/25 08:34:52;;;;;;;2.20;2.00;;;19.90;91.70;;;;;;4989727;28;20150;-80
2021/09/25 08:37:20;;;;;;;1.67;1.58;;;20.00;91.70;;;;;;4967049;28;20308;-79
2021/09/25 08:39:47;;;;;;;1.42;1.33;;;20.20;91.50;;;;;;4982549;28;20401;-79
2021/09/25 08:42:16;;;;;;;1.63;1.52;;;20.50;91.20;;;;;;4982263;28;20547;-79
2021/09/25 08:44:49;;;;;;;1.60;1.50;;;20.70;90.20;;;;;;4969169;28;20141;-79
2021/09/25 08:47:20;;;;;;;1.42;1.33;;;21.00;89.10;;;;;;4978642;28;20078;-81
2021/09/25 08:49:48;;;;;;;1.40;1.33;;;21.10;88.30;;;;;;4982613;28;20069;-81
2021/09/25 08:52:17;;;;;;;1.45;1.35;;;21.20;87.10;;;;;;4983270;28;20042;-80
2021/09/25 08:54:45;;;;;;;1.00;1.00;;;21.10;86.10;;;;;;4982458;28;20121;-81
2021/09/25 08:57:13;;;;;;;2.25;1.70;;;21.30;85.50;;;;;;4982451;28;20073;-79
2021/09/25 08:59:40;;;;;;;3.42;2.17;;;21.60;84.20;;;;;;4988523;28;20046;-80
2021/09/25 09:02:13;;;;;;;1.85;1.70;;;21.40;83.60;;;;;;4993816;28;20038;-79
2021/09/25 09:04:49;;;;;;;1.20;1.10;;;21.50;83.70;;;;;;4994399;28;20038;-83
2021/09/25 09:07:18;;;;;;;3.20;1.75;;;21.80;81.90;;;;;;4993181;28;20494;-79
2021/09/25 09:09:51;;;;;;;3.60;3.25;;;22.10;80.20;;;;;;4990291;28;20054;-80
2021/09/25 09:12:26;;;;;;;1.00;0.90;;;22.20;78.90;;;;;;4992242;28;20177;-80
2021/09/25 09:14:54;;;;;;;0.90;0.90;;;22.40;79.00;;;;;;4993103;28;20146;-80
2021/09/25 09:17:32;;;;;;;1.33;1.23;;;22.60;78.90;;;;;;4988506;28;20061;-77
2021/09/25 09:20:10;;;;;;;3.75;3.45;;;22.80;77.80;;;;;;4982873;28;20469;-80
2021/09/25 09:22:37;;;;;;;0.93;0.90;;;22.70;77.30;;;;;;4961656;28;20043;-81
2021/09/25 09:25:06;;;;;;;0.90;0.90;;;22.80;76.70;;;;;;4979910;28;20085;-80
2021/09/25 09:27:33;;;;;;;6.68;1.77;;;22.90;75.50;;;;;;4963949;28;20035;-80
2021/09/25 09:30:13;;;;;;;1.30;1.20;;;23.20;75.60;;;;;;4980851;28;20101;-80
2021/09/25 09:32:41;;;;;;;1.25;1.10;;;23.40;74.20;;;;;;4981161;28;20038;-81
2021/09/25 09:35:15;;;;;;;1.30;1.20;;;23.50;75.00;;;;;;4981224;28;20038;-82
2021/09/25 09:37:45;;;;;;;1.08;1.00;;;23.70;73.80;;;;;;4980195;28;20631;-82
2021/09/25 09:40:13;;;;;;;;;;;24.00;73.70;;;;;;4981424;28;20446;-82
2021/09/25 09:42:49;;;;;;;1.50;1.40;;;24.30;72.40;;;;;;4981895;28;20016;-81
2021/09/25 09:45:28;;;;;;;1.98;1.77;;;24.00;71.70;;;;;;4977954;28;20042;-79
2021/09/25 09:47:58;;;;;;;0.60;0.60;;;24.40;71.00;;;;;;4970977;28;20042;-79
2021/09/25 09:50:28;;;;;;;2.53;1.90;;;24.30;69.80;;;;;;4979552;28;20048;-80
2021/09/25 09:53:13;;;;;;;0.85;0.85;;;24.50;69.30;;;;;;4992539;28;20129;-81
2021/09/25 09:55:45;;;;;;;1.05;0.98;;;24.80;69.60;;;;;;4992745;28;20057;-80
2021/09/25 09:58:13;;;;;;;1.85;1.67;;;24.90;68.80;;;;;;4989083;28;20546;-83
2021/09/25 10:00:40;;;;;;;1.45;1.38;;;25.20;67.60;;;;;;4992434;28;20104;-85
2021/09/25 10:03:09;;;;;;;0.60;0.60;;;25.30;66.60;;;;;;4973656;28;20426;-85
2021/09/25 10:05:38;;;;;;;1.42;1.17;;;25.40;65.10;;;;;;4978031;28;20112;-81
2021/09/25 10:08:06;;;;;;;2.17;1.58;;;25.30;64.40;;;;;;4992289;28;20043;-84
2021/09/25 10:10:35;;;;;;;0.90;0.88;;;25.50;65.80;;;;;;4987519;28;20107;-83
2021/09/25 10:13:02;;;;;;;0.60;0.60;;;25.50;65.00;;;;;;4993299;28;20048;-88
2021/09/25 10:15:30;;;;;;;0.60;0.60;;;25.70;63.80;;;;;;4993099;28;20049;-84
2021/09/25 10:17:58;;;;;;;1.25;1.15;;;25.80;64.20;;;;;;4985465;28;20116;-86
2021/09/25 10:20:25;;;;;;;0.73;0.68;;;26.00;63.60;;;;;;4990394;28;20078;-83
2021/09/25 10:22:54;;;;;;;2.00;1.20;;;26.00;63.40;;;;;;4991244;28;20046;-85
2021/09/25 10:25:22;;;;;;;2.05;1.75;;;26.20;62.20;;;;;;4992409;28;20130;-84
2021/09/25 10:27:49;;;;;;;1.40;1.30;;;25.80;62.10;;;;;;4990188;28;20034;-84
2021/09/25 10:30:32;;;;;;;11.18;1.13;;;25.90;61.50;;;;;;4992817;28;20093;-84
2021/09/25 10:33:13;;;;;;;0.45;0.45;;;26.20;60.20;;;;;;4989356;28;20420;-83
2021/09/25 10:35:40;;;;;;;0.50;0.50;;;26.40;59.70;;;;;;4990725;28;20046;-82
2021/09/25 10:38:08;;;;;;;0.65;0.65;;;26.40;60.00;;;;;;4992373;28;20088;-83
2021/09/25 10:41:16;;;;;;;0.70;0.70;;;26.60;59.90;;;;;;4992373;28;20042;-82
2021/09/25 10:43:45;;;;;;;0.90;0.90;;;26.70;59.70;;;;;;4987578;28;20068;-82
2021/09/25 10:46:14;;;;;;;0.50;0.50;;;26.80;59.30;;;;;;4964591;28;20380;-81
2021/09/25 10:48:52;;;;;;;1.00;0.90;;;27.00;58.60;;;;;;4972936;28;20487;-80
2021/09/25 10:51:20;;;;;;;0.50;0.50;;;27.20;58.70;;;;;;4979035;28;20058;-80
2021/09/25 10:53:50;;;;;;;5.63;4.22;;;27.10;58.40;;;;;;4974850;28;20146;-83
2021/09/25 10:56:23;;;;;;;2.67;2.47;;;27.30;58.70;;;;;;4971925;28;20487;-82
2021/09/25 10:59:01;;;;;;;2.72;2.35;;;27.40;58.60;;;;;;4989223;28;20042;-82
2021/09/25 11:01:41;;;;;;;3.47;2.42;;;27.70;58.20;;;;;;4991943;28;20050;-81
2021/09/25 11:04:10;;;;;;;;;;;28.00;57.80;;;;;;4992508;28;20042;-83
2021/09/25 11:06:39;;;;;;;4.53;2.30;;;28.00;58.10;;;;;;4981654;28;19922;-77
2021/09/25 11:09:29;;;;;;;6.83;2.10;;;27.40;58.40;;;;;;4970255;28;20050;-80
2021/09/25 11:12:16;;;;;;;0.77;0.77;;;27.40;58.40;;;;;;4992188;28;20097;-82
2021/09/25 11:14:56;;;;;;;0.60;0.47;;;27.50;57.70;;;;;;4991447;28;20586;-82
2021/09/25 11:17:29;;;;;;;0.50;0.50;;;27.30;57.60;;;;;;4990205;28;20039;-80
2021/09/25 11:20:01;;;;;;;0.50;0.50;;;27.30;57.80;;;;;;4990443;28;20042;-80
2021/09/25 11:22:37;;;;;;;0.77;0.77;;;27.30;57.30;;;;;;4988308;28;20042;-83
2021/09/25 11:25:13;;;;;;;0.70;0.70;;;26.90;58.20;;;;;;4988179;28;20046;-78
2021/09/25 11:27:52;;;;;;;0.55;0.55;;;27.60;57.00;;;;;;4989787;28;20426;-79
2021/09/25 11:30:25;;;;;;;3.38;1.27;;;27.50;56.50;;;;;;4990189;28;20066;-79
2021/09/25 11:32:53;;;;;;;0.65;0.65;;;27.20;56.60;;;;;;4985572;28;20134;-83
2021/09/25 11:35:27;;;;;;;0.30;0.30;;;26.80;57.30;;;;;;4989637;28;20042;-82
2021/09/25 11:38:01;;;;;;;0.52;0.50;;;27.60;56.60;;;;;;4989192;28;20577;-79
2021/09/25 11:40:38;;;;;;;1.08;1.00;;;27.80;55.90;;;;;;4990564;28;20054;-80
2021/09/25 11:43:09;;;;;;;0.38;0.38;;;27.90;56.40;;;;;;5022183;28;20050;-78
2021/09/25 11:45:59;;;;;;;2.40;1.25;;;27.60;55.40;;;;;;4992299;28;20061;-79
2021/09/25 11:48:32;;;;;;;0.63;0.63;;;27.80;54.60;;;;;;5025314;28;20054;-83
2021/09/25 11:51:02;;;;;;;1.05;0.50;;;28.20;55.00;;;;;;4993154;28;20411;-79
2021/09/25 11:53:31;;;;;;;;;;;27.90;54.70;;;;;;4995372;28;20043;-82
2021/09/25 11:55:59;;;;;;;1.08;0.45;;;28.10;55.00;;;;;;4991396;28;19985;-81
2021/09/25 11:58:27;;;;;;;0.60;0.60;;;28.40;54.50;;;;;;4993808;28;20050;-79
2021/09/25 12:00:57;;;;;;;0.40;0.40;;;28.30;53.90;;;;;;4994403;28;20053;-84
2021/09/25 12:03:32;;;;;;;0.47;0.47;;;27.90;54.30;;;;;;4993554;28;20513;-78
2021/09/25 12:06:02;;;;;;;0.95;0.85;;;27.80;54.50;;;;;;4993812;28;20065;-83
2021/09/25 12:08:31;;;;;;;0.60;0.60;;;28.00;53.80;;;;;;4990639;28;20064;-81
2021/09/25 12:11:04;;;;;;;0.40;0.37;;;28.20;54.20;;;;;;4994442;28;20066;-80
2021/09/25 12:13:35;;;;;;;3.50;3.05;;;28.20;54.40;;;;;;4993302;28;20052;-84
2021/09/25 12:16:13;;;;;;;3.78;3.20;;;28.50;53.70;;;;;;4991307;28;20049;-82
2021/09/25 12:18:42;;;;;;;0.50;0.50;;;28.80;53.80;;;;;;4978701;28;20086;-86
2021/09/25 12:21:12;;;;;;;2.53;1.43;;;28.80;52.90;;;;;;4988136;28;20101;-84
2021/09/25 12:24:06;;;;;;;0.43;0.43;;;29.00;52.90;;;;;;4988826;28;20296;-88
2021/09/25 12:26:43;;;;;;;0.85;0.75;;;28.90;52.50;;;;;;4990266;28;20043;-84
2021/09/25 12:29:15;;;;;;;1.10;0.75;;;29.10;52.40;;;;;;4993276;28;20050;-87
2021/09/25 12:31:43;;;;;;;1.70;1.17;;;29.90;52.40;;;;;;5006940;28;20038;-84
2021/09/25 12:34:14;;;;;;;0.52;0.52;;;32.30;51.70;;;;;;4993598;28;20053;-80
2021/09/25 12:36:47;;;;;;;2.92;1.77;;;34.60;48.30;;;;;;4992809;28;20039;-84
2021/09/25 12:39:20;;;;;;;0.40;0.40;;;36.30;46.40;;;;;;4993251;28;20476;-83
2021/09/25 12:41:58;;;;;;;2.08;1.48;;;35.10;44.90;;;;;;4992551;28;20122;-82
2021/09/25 12:44:28;;;;;;;0.75;0.75;;;33.00;46.20;;;;;;4991674;28;20118;-80
2021/09/25 12:46:57;;;;;;;0.30;0.30;;;32.10;48.20;;;;;;4992680;28;20043;-79
2021/09/25 12:49:34;;;;;;;1.25;0.95;;;31.40;49.00;;;;;;4977652;28;20465;-77
2021/09/25 12:52:08;;;;;;;3.33;1.90;;;30.10;50.10;;;;;;4986802;28;20046;-84
2021/09/25 12:54:36;;;;;;;1.13;0.90;;;30.10;50.30;;;;;;4991668;28;20050;-83
2021/09/25 12:57:16;;;;;;;0.68;0.65;;;29.60;50.70;;;;;;4990727;28;20038;-84
2021/09/25 12:59:46;;;;;;;0.30;0.30;;;29.90;50.90;;;;;;4993339;28;20109;-82